createdAt,value
2022-12-04T00:00:15.188Z,33.20
2022-12-04T00:02:43.969Z,35.13
2022-12-04T00:05:12.616Z,34.07
2022-12-04T00:07:41.294Z,32.40
2022-12-04T00:10:11.508Z,32.50
2022-12-04T00:12:40.184Z,38.10
2022-12-04T00:15:27.522Z,36.07
2022-12-04T00:17:56.534Z,35.87
2022-12-04T00:20:25.100Z,37.83
2022-12-04T00:22:53.645Z,36.07
2022-12-04T00:25:22.245Z,34.40
2022-12-04T00:27:50.862Z,46.17
2022-12-04T00:30:20.950Z,70.10
2022-12-04T00:32:49.480Z,71.33
2022-12-04T00:35:18.190Z,58.53
2022-12-04T00:37:47.348Z,38.80
2022-12-04T00:40:16.018Z,35.40
2022-12-04T00:42:44.542Z,33.63
2022-12-04T00:45:13.280Z,34.37
2022-12-04T00:47:43.189Z,36.73
2022-12-04T00:50:12.935Z,35.17
2022-12-04T00:52:41.562Z,32.53
2022-12-04T00:55:11.344Z,34.50
2022-12-04T00:57:39.871Z,33.17
2022-12-04T01:00:10.151Z,35.50
2022-12-04T01:02:38.976Z,35.20
2022-12-04T01:05:10.064Z,34.80
2022-12-04T01:07:39.847Z,33.83
2022-12-04T01:10:13.218Z,35.33
2022-12-04T01:12:41.813Z,33.90
2022-12-04T01:15:11.715Z,33.97
2022-12-04T01:17:40.453Z,33.10
2022-12-04T01:20:13.172Z,34.53
2022-12-04T01:22:41.752Z,31.53
2022-12-04T01:25:11.344Z,33.00
2022-12-04T01:27:39.977Z,32.43
2022-12-04T01:30:09.945Z,32.83
2022-12-04T01:32:38.598Z,33.53
2022-12-04T01:35:10.155Z,33.53
2022-12-04T01:37:38.856Z,32.53
2022-12-04T01:40:14.002Z,34.33
2022-12-04T01:42:42.668Z,36.07
2022-12-04T01:45:43.457Z,36.93
2022-12-04T01:48:21.404Z,33.80
2022-12-04T01:50:56.978Z,35.37
2022-12-04T01:53:26.269Z,35.23
2022-12-04T01:55:56.734Z,34.30
2022-12-04T01:58:34.213Z,33.90
2022-12-04T02:01:09.204Z,37.63
2022-12-04T02:03:39.144Z,36.23
2022-12-04T02:06:09.444Z,33.40
2022-12-04T02:08:39.244Z,35.10
2022-12-04T02:11:25.758Z,34.67
2022-12-04T02:14:09.010Z,32.40
2022-12-04T02:16:49.559Z,32.43
2022-12-04T02:20:11.161Z,38.07
2022-12-04T02:23:28.269Z,34.67
2022-12-04T02:26:10.837Z,34.87
2022-12-04T02:28:50.118Z,34.73
2022-12-04T02:31:26.614Z,36.53
2022-12-04T02:34:02.710Z,35.33
2022-12-04T02:36:38.687Z,34.80
2022-12-04T02:39:18.345Z,35.73
2022-12-04T02:41:56.607Z,36.17
2022-12-04T02:44:31.933Z,34.90
2022-12-04T02:47:07.926Z,34.00
2022-12-04T02:49:44.237Z,34.27
2022-12-04T02:52:18.399Z,32.33
2022-12-04T02:54:55.271Z,33.50
2022-12-04T02:57:31.197Z,34.37
2022-12-04T03:00:05.992Z,34.60
2022-12-04T03:02:42.416Z,35.07
2022-12-04T03:05:19.572Z,33.07
2022-12-04T03:07:55.367Z,35.73
2022-12-04T03:10:33.711Z,33.90
2022-12-04T03:13:10.114Z,41.60
2022-12-04T03:15:46.896Z,45.00
2022-12-04T03:18:23.797Z,45.27
2022-12-04T03:21:02.670Z,45.50
2022-12-04T03:23:36.347Z,42.13
2022-12-04T03:26:16.877Z,41.90
2022-12-04T03:28:57.163Z,41.27
2022-12-04T03:31:39.118Z,42.87
2022-12-04T03:34:13.570Z,42.07
2022-12-04T03:36:53.478Z,37.30
2022-12-04T03:39:28.373Z,35.63
2022-12-04T03:42:03.218Z,32.33
2022-12-04T03:44:43.369Z,32.10
2022-12-04T03:47:19.869Z,30.50
2022-12-04T03:49:58.155Z,32.30
2022-12-04T03:52:35.965Z,31.20
2022-12-04T03:55:20.145Z,30.47
2022-12-04T03:57:51.474Z,27.57
2022-12-04T04:00:23.105Z,29.97
2022-12-04T04:03:00.269Z,26.93
2022-12-04T04:05:31.548Z,28.23
2022-12-04T04:08:19.542Z,26.67
2022-12-04T04:10:48.793Z,26.23
2022-12-04T04:13:45.523Z,24.97
2022-12-04T04:16:37.409Z,25.47
2022-12-04T04:19:27.870Z,23.63
2022-12-04T04:22:16.765Z,27.67
2022-12-04T04:24:55.100Z,27.73
2022-12-04T04:27:23.595Z,31.73
2022-12-04T04:29:54.078Z,29.50
2022-12-04T04:32:36.762Z,31.33
2022-12-04T04:35:22.253Z,29.00
2022-12-04T04:38:01.357Z,29.23
2022-12-04T04:40:39.425Z,28.43
2022-12-04T04:43:16.984Z,29.03
2022-12-04T04:45:51.437Z,31.33
2022-12-04T04:48:26.946Z,30.70
2022-12-04T04:50:59.191Z,29.37
2022-12-04T04:53:36.478Z,30.90
2022-12-04T04:56:08.062Z,32.43
2022-12-04T04:58:36.634Z,29.70
2022-12-04T05:01:08.803Z,34.73
2022-12-04T05:03:37.707Z,34.70
2022-12-04T05:06:08.057Z,34.73
2022-12-04T05:08:37.009Z,35.07
2022-12-04T05:11:06.985Z,32.27
2022-12-04T05:13:35.611Z,35.63
2022-12-04T05:16:07.505Z,30.03
2022-12-04T05:18:37.271Z,33.57
2022-12-04T05:21:08.637Z,32.07
2022-12-04T05:23:37.329Z,32.27
2022-12-04T05:26:07.218Z,31.63
2022-12-04T05:28:35.807Z,32.03
2022-12-04T05:31:05.604Z,33.50
2022-12-04T05:33:34.589Z,29.50
2022-12-04T05:36:08.232Z,31.70
2022-12-04T05:38:37.860Z,32.17
2022-12-04T05:41:08.207Z,30.10
2022-12-04T05:43:37.598Z,31.00
2022-12-04T05:46:09.090Z,31.77
2022-12-04T05:48:37.985Z,30.40
2022-12-04T05:51:12.383Z,30.03
2022-12-04T05:53:41.009Z,30.23
2022-12-04T05:56:10.362Z,31.77
2022-12-04T05:58:40.050Z,31.57
2022-12-04T06:01:13.803Z,31.67
2022-12-04T06:03:42.525Z,31.07
2022-12-04T06:06:23.302Z,31.13
2022-12-04T06:08:53.856Z,29.10
2022-12-04T06:11:25.696Z,31.27
2022-12-04T06:13:54.768Z,31.83
2022-12-04T06:16:26.979Z,34.03
2022-12-04T06:18:59.113Z,32.97
2022-12-04T06:21:32.491Z,30.40
2022-12-04T06:24:01.139Z,31.40
2022-12-04T06:26:30.045Z,32.27
2022-12-04T06:29:01.374Z,33.90
2022-12-04T06:31:31.098Z,34.07
2022-12-04T06:34:00.029Z,33.00
2022-12-04T06:36:30.613Z,31.43
2022-12-04T06:38:59.619Z,33.67
2022-12-04T06:41:30.026Z,34.97
2022-12-04T06:43:59.277Z,34.73
2022-12-04T06:46:30.329Z,33.13
2022-12-04T06:49:01.096Z,32.10
2022-12-04T06:51:33.957Z,32.73
2022-12-04T06:54:03.431Z,31.07
2022-12-04T06:56:35.315Z,35.83
2022-12-04T06:59:05.790Z,33.47
2022-12-04T07:01:36.344Z,32.73
2022-12-04T07:04:06.113Z,32.70
2022-12-04T07:06:38.895Z,32.23
2022-12-04T07:09:11.331Z,32.27
2022-12-04T07:11:40.906Z,32.43
2022-12-04T07:14:10.088Z,34.70
2022-12-04T07:16:41.552Z,32.10
2022-12-04T07:19:13.001Z,32.40
2022-12-04T07:21:44.307Z,32.17
2022-12-04T07:24:17.707Z,36.27
2022-12-04T07:26:46.845Z,35.47
2022-12-04T07:29:15.387Z,33.87
2022-12-04T07:31:44.677Z,32.03
2022-12-04T07:34:13.390Z,35.03
2022-12-04T07:36:43.395Z,33.20
2022-12-04T07:39:11.994Z,34.03
2022-12-04T07:41:40.940Z,35.77
2022-12-04T07:44:09.639Z,33.07
2022-12-04T07:46:38.279Z,35.10
2022-12-04T07:49:06.967Z,40.67
2022-12-04T07:51:35.635Z,38.40
2022-12-04T07:54:05.796Z,71.97
2022-12-04T07:56:34.710Z,37.93
2022-12-04T07:59:03.891Z,35.47
2022-12-04T08:01:33.349Z,47.20
2022-12-04T08:04:03.452Z,36.37
2022-12-04T08:06:36.088Z,35.90
2022-12-04T08:09:10.130Z,34.03
2022-12-04T08:11:39.718Z,31.70
2022-12-04T08:14:09.834Z,33.87
2022-12-04T08:16:38.744Z,36.83
2022-12-04T08:19:07.585Z,37.87
2022-12-04T08:21:36.202Z,35.50
2022-12-04T08:24:06.765Z,35.53
2022-12-04T08:26:35.581Z,34.73
2022-12-04T08:29:05.521Z,38.67
2022-12-04T08:31:36.861Z,36.57
2022-12-04T08:34:08.339Z,36.23
2022-12-04T08:36:37.438Z,42.70
2022-12-04T08:39:08.077Z,60.07
2022-12-04T08:41:37.686Z,39.33
2022-12-04T08:44:06.717Z,41.27
2022-12-04T08:46:35.391Z,38.30
2022-12-04T08:49:04.851Z,37.17
2022-12-04T08:51:36.095Z,35.83
2022-12-04T08:54:09.484Z,35.47
2022-12-04T08:56:38.638Z,37.10
2022-12-04T08:59:07.449Z,32.43
2022-12-04T09:01:36.177Z,34.07
2022-12-04T09:04:05.392Z,34.83
2022-12-04T09:06:33.979Z,35.23
2022-12-04T09:09:08.164Z,34.27
2022-12-04T09:11:38.042Z,31.47
2022-12-04T09:14:07.376Z,32.87
2022-12-04T09:16:35.911Z,32.27
2022-12-04T09:19:04.826Z,35.37
2022-12-04T09:21:33.489Z,33.50
2022-12-04T09:24:02.194Z,33.77
2022-12-04T09:26:33.415Z,31.57
2022-12-04T09:29:06.166Z,29.63
2022-12-04T09:31:35.755Z,29.77
2022-12-04T09:34:04.626Z,27.93
2022-12-04T09:36:33.302Z,31.03
2022-12-04T09:39:01.882Z,30.17
2022-12-04T09:42:19.243Z,27.67
2022-12-04T09:44:57.013Z,28.20
2022-12-04T09:47:31.157Z,28.83
2022-12-04T09:50:07.839Z,26.33
2022-12-04T09:52:52.669Z,23.43
2022-12-04T09:55:27.431Z,23.97
2022-12-04T09:58:02.412Z,25.00
2022-12-04T10:00:40.379Z,22.83
2022-12-04T10:03:17.299Z,22.40
2022-12-04T10:05:58.759Z,22.33
2022-12-04T10:08:32.962Z,21.70
2022-12-04T10:11:13.891Z,22.30
2022-12-04T10:14:09.656Z,23.40
2022-12-04T10:16:57.698Z,20.57
2022-12-04T10:19:38.119Z,18.63
2022-12-04T10:22:19.215Z,21.10
2022-12-04T10:24:53.087Z,16.97
2022-12-04T10:27:26.772Z,22.40
2022-12-04T10:30:02.554Z,17.37
2022-12-04T10:32:35.663Z,18.03
2022-12-04T10:35:20.300Z,15.87
2022-12-04T10:37:54.595Z,15.13
2022-12-04T10:40:28.849Z,15.83
2022-12-04T10:43:04.526Z,15.37
2022-12-04T10:45:33.421Z,19.47
2022-12-04T10:48:04.025Z,22.03
2022-12-04T10:50:32.706Z,15.87
2022-12-04T10:53:01.617Z,22.73
2022-12-04T10:55:33.369Z,16.67
2022-12-04T10:58:03.269Z,16.73
2022-12-04T11:00:35.156Z,18.60
2022-12-04T11:03:23.243Z,18.00
2022-12-04T11:05:57.805Z,20.57
2022-12-04T11:08:39.723Z,18.33
2022-12-04T11:11:12.279Z,13.40
2022-12-04T11:13:42.496Z,15.17
2022-12-04T11:16:37.818Z,13.37
2022-12-04T11:19:23.920Z,21.93
2022-12-04T11:21:54.231Z,18.47
2022-12-04T11:24:27.581Z,16.10
2022-12-04T11:26:57.794Z,17.13
2022-12-04T11:29:34.789Z,15.60
2022-12-04T11:32:07.814Z,18.83
2022-12-04T11:34:42.553Z,24.30
2022-12-04T11:37:23.654Z,15.10
2022-12-04T11:39:54.091Z,20.10
2022-12-04T11:42:27.137Z,18.40
2022-12-04T11:44:58.740Z,15.37
2022-12-04T11:47:31.140Z,19.73
2022-12-04T11:50:14.891Z,20.33
2022-12-04T11:53:03.097Z,20.07
2022-12-04T11:55:44.650Z,16.20
2022-12-04T11:58:47.846Z,18.00
2022-12-04T12:01:37.603Z,23.97
2022-12-04T12:04:52.379Z,20.10
2022-12-04T12:07:40.767Z,19.07
2022-12-04T12:10:20.296Z,23.90
2022-12-04T12:13:02.367Z,15.53
2022-12-04T12:15:43.225Z,18.13
2022-12-04T12:18:40.348Z,13.63
2022-12-04T12:21:20.713Z,13.93
2022-12-04T12:24:11.053Z,17.47
2022-12-04T12:26:55.319Z,17.75
2022-12-04T12:29:48.398Z,23.43
2022-12-04T12:32:49.466Z,16.10
2022-12-04T12:35:28.386Z,16.93
2022-12-04T12:38:03.598Z,13.57
2022-12-04T12:40:39.748Z,19.77
2022-12-04T12:43:15.187Z,20.70
2022-12-04T12:45:54.500Z,20.02
2022-12-04T12:48:31.357Z,18.77
2022-12-04T12:51:29.034Z,15.27
2022-12-04T12:54:12.469Z,14.20
2022-12-04T12:56:49.902Z,14.37
2022-12-04T12:59:23.691Z,14.05
2022-12-04T13:02:01.228Z,12.37
2022-12-04T13:04:38.952Z,11.80
2022-12-04T13:07:26.319Z,11.60
2022-12-04T13:10:04.502Z,13.83
2022-12-04T13:12:45.401Z,21.47
2022-12-04T13:15:18.324Z,22.25
2022-12-04T13:17:50.968Z,22.60
2022-12-04T13:20:27.627Z,20.25
2022-12-04T13:23:19.581Z,23.70
2022-12-04T13:26:04.028Z,21.48
2022-12-04T13:28:50.265Z,25.07
2022-12-04T13:31:34.399Z,19.57
2022-12-04T13:34:36.735Z,15.53
2022-12-04T13:37:29.838Z,15.05
2022-12-04T13:40:38.647Z,13.07
2022-12-04T13:43:48.266Z,13.57
2022-12-04T13:46:34.303Z,13.80
2022-12-04T13:49:25.191Z,12.80
2022-12-04T13:51:55.146Z,12.80
2022-12-04T13:54:31.793Z,13.30
2022-12-04T13:57:23.016Z,13.80
2022-12-04T14:00:06.511Z,14.57
2022-12-04T14:02:38.363Z,13.53
2022-12-04T14:05:11.894Z,14.17
2022-12-04T14:07:43.873Z,14.55
2022-12-04T14:10:30.020Z,15.40
2022-12-04T14:13:03.314Z,14.93
2022-12-04T14:15:37.606Z,13.53
2022-12-04T14:18:29.505Z,14.97
2022-12-04T14:21:04.964Z,14.67
2022-12-04T14:23:40.089Z,16.17
2022-12-04T14:26:37.257Z,15.38
2022-12-04T14:29:40.086Z,15.83
2022-12-04T14:32:17.977Z,15.47
2022-12-04T14:34:48.529Z,16.07
2022-12-04T14:37:29.078Z,16.10
2022-12-04T14:39:59.641Z,17.70
2022-12-04T14:42:34.760Z,14.97
2022-12-04T14:45:07.976Z,17.37
2022-12-04T14:47:46.951Z,17.43
2022-12-04T14:50:33.346Z,17.97
2022-12-04T14:53:14.819Z,17.33
2022-12-04T14:55:57.622Z,15.82
2022-12-04T14:58:34.909Z,17.70
2022-12-04T15:01:07.472Z,17.03
2022-12-04T15:03:45.753Z,16.53
2022-12-04T15:06:25.631Z,18.30
2022-12-04T15:09:18.417Z,18.47
2022-12-04T15:12:04.589Z,17.27
2022-12-04T15:14:42.527Z,22.97
2022-12-04T15:17:12.289Z,23.03
2022-12-04T15:19:42.491Z,19.87
2022-12-04T15:22:23.224Z,18.77
2022-12-04T15:24:53.715Z,19.20
2022-12-04T15:27:31.949Z,22.47
2022-12-04T15:30:03.741Z,22.90
2022-12-04T15:32:33.845Z,28.63
2022-12-04T15:35:10.411Z,24.43
2022-12-04T15:37:39.414Z,26.17
2022-12-04T15:40:11.982Z,25.27
2022-12-04T15:42:40.550Z,24.67
2022-12-04T15:45:29.947Z,26.75
2022-12-04T15:47:58.803Z,26.03
2022-12-04T15:50:31.308Z,24.73
2022-12-04T15:53:07.586Z,25.27
2022-12-04T15:55:47.051Z,33.67
2022-12-04T15:58:23.473Z,25.30
2022-12-04T16:00:58.640Z,24.67
2022-12-04T16:03:32.393Z,25.67
2022-12-04T16:06:17.803Z,24.70
2022-12-04T16:08:49.050Z,22.67
2022-12-04T16:11:37.398Z,23.67
2022-12-04T16:14:17.399Z,26.02
2022-12-04T16:16:48.424Z,26.17
2022-12-04T16:19:24.112Z,26.03
2022-12-04T16:21:54.283Z,26.60
2022-12-04T16:24:23.241Z,27.37
2022-12-04T16:26:54.833Z,35.43
2022-12-04T16:29:24.665Z,32.40
2022-12-04T16:31:57.052Z,30.40
2022-12-04T16:34:29.886Z,28.77
2022-12-04T16:37:00.618Z,29.63
2022-12-04T16:39:29.182Z,30.97
2022-12-04T16:41:57.737Z,31.47
2022-12-04T16:44:26.322Z,30.47
2022-12-04T16:46:55.122Z,34.20
2022-12-04T16:49:23.765Z,34.63
2022-12-04T16:51:52.259Z,34.47
2022-12-04T16:54:22.148Z,35.03
2022-12-04T16:56:50.737Z,35.33
2022-12-04T16:59:19.358Z,33.37
2022-12-04T17:01:50.524Z,32.43
2022-12-04T17:04:20.001Z,35.00
2022-12-04T17:06:48.833Z,33.97
2022-12-04T17:09:17.464Z,35.47
2022-12-04T17:11:47.391Z,40.17
2022-12-04T17:14:15.937Z,38.23
2022-12-04T17:16:47.294Z,34.60
2022-12-04T17:19:16.898Z,48.10
2022-12-04T17:21:46.285Z,43.93
2022-12-04T17:24:14.922Z,40.77
2022-12-04T17:26:43.510Z,42.13
2022-12-04T17:29:13.405Z,34.73
2022-12-04T17:31:42.001Z,36.70
2022-12-04T17:34:10.538Z,37.43
2022-12-04T17:36:39.162Z,36.57
2022-12-04T17:39:08.355Z,40.70
2022-12-04T17:41:37.098Z,36.43
2022-12-04T17:44:05.678Z,41.13
2022-12-04T17:46:35.907Z,38.10
2022-12-04T17:49:07.290Z,34.33
2022-12-04T17:51:36.261Z,36.57
2022-12-04T17:54:05.387Z,35.33
2022-12-04T17:56:34.421Z,45.50
2022-12-04T17:59:03.033Z,39.50
2022-12-04T18:01:32.564Z,38.33
2022-12-04T18:04:06.399Z,43.10
2022-12-04T18:06:37.461Z,40.07
2022-12-04T18:09:08.563Z,42.87
2022-12-04T18:11:41.870Z,42.43
2022-12-04T18:14:15.122Z,45.20
2022-12-04T18:16:46.644Z,43.87
2022-12-04T18:19:18.166Z,40.60
2022-12-04T18:21:47.224Z,41.57
2022-12-04T18:24:16.976Z,38.83
2022-12-04T18:26:48.149Z,41.23
2022-12-04T18:29:20.100Z,39.40
2022-12-04T18:31:49.338Z,41.30
2022-12-04T18:34:20.463Z,44.88
2022-12-04T18:36:49.765Z,44.67
2022-12-04T18:39:20.947Z,46.10
2022-12-04T18:41:50.246Z,44.90
2022-12-04T18:44:19.550Z,51.03
2022-12-04T18:46:48.163Z,51.63
2022-12-04T18:49:18.250Z,49.83
2022-12-04T18:51:49.958Z,52.97
2022-12-04T18:54:21.661Z,52.17
2022-12-04T18:56:50.696Z,50.23
2022-12-04T18:59:21.937Z,54.73
2022-12-04T19:01:51.181Z,52.27
2022-12-04T19:04:23.956Z,53.53
2022-12-04T19:06:55.513Z,55.07
2022-12-04T19:10:10.509Z,53.27
2022-12-04T19:12:15.846Z,52.50
2022-12-04T19:14:44.487Z,57.17
2022-12-04T19:17:13.311Z,54.37
2022-12-04T19:19:43.309Z,54.57
2022-12-04T19:22:11.866Z,53.80
2022-12-04T19:24:40.460Z,53.73
2022-12-04T19:27:11.896Z,61.70
2022-12-04T19:29:42.460Z,54.83
2022-12-04T19:32:12.579Z,52.10
2022-12-04T19:34:42.864Z,59.60
2022-12-04T19:37:11.550Z,55.53
2022-12-04T19:39:40.407Z,62.93
2022-12-04T19:42:08.947Z,66.90
2022-12-04T19:44:53.517Z,58.37
2022-12-04T19:47:22.272Z,61.73
2022-12-04T19:49:53.878Z,63.53
2022-12-04T19:52:22.491Z,65.10
2022-12-04T19:54:51.072Z,64.77
2022-12-04T19:57:19.663Z,65.13
2022-12-04T19:59:48.341Z,59.77
2022-12-04T20:02:17.098Z,60.83
2022-12-04T20:04:45.942Z,60.57
2022-12-04T20:07:15.971Z,70.93
2022-12-04T20:09:51.986Z,65.80
2022-12-04T20:12:21.138Z,73.23
2022-12-04T20:14:49.781Z,73.20
2022-12-04T20:17:18.352Z,65.37
2022-12-04T20:19:46.957Z,69.67
2022-12-04T20:22:17.078Z,69.80
2022-12-04T20:24:45.798Z,75.57
2022-12-04T20:27:14.384Z,66.63
2022-12-04T20:29:43.330Z,62.93
2022-12-04T20:32:11.939Z,85.27
2022-12-04T20:34:43.790Z,65.03
2022-12-04T20:37:12.917Z,64.33
2022-12-04T20:39:43.335Z,61.50
2022-12-04T20:42:15.701Z,58.83
2022-12-04T20:44:44.383Z,65.30
2022-12-04T20:47:13.114Z,81.33
2022-12-04T20:49:41.994Z,85.23
2022-12-04T20:52:11.239Z,82.33
2022-12-04T20:54:41.744Z,71.83
2022-12-04T20:57:12.266Z,55.20
2022-12-04T20:59:40.909Z,72.90
2022-12-04T21:02:09.530Z,93.40
2022-12-04T21:04:39.598Z,82.20
2022-12-04T21:07:08.430Z,80.83
2022-12-04T21:09:37.168Z,68.47
2022-12-04T21:12:27.494Z,71.07
2022-12-04T21:15:15.669Z,67.87
2022-12-04T21:17:44.303Z,58.47
2022-12-04T21:20:13.882Z,69.83
2022-12-04T21:22:42.640Z,65.17
2022-12-04T21:25:11.558Z,64.50
2022-12-04T21:27:40.202Z,58.43
2022-12-04T21:30:12.240Z,57.97
2022-12-04T21:32:42.077Z,55.37
2022-12-04T21:35:11.561Z,60.17
2022-12-04T21:37:40.055Z,60.43
2022-12-04T21:40:10.858Z,57.50
2022-12-04T21:42:39.416Z,47.27
2022-12-04T21:45:10.750Z,51.30
2022-12-04T21:47:39.909Z,57.73
2022-12-04T21:50:09.825Z,60.80
2022-12-04T21:52:38.429Z,62.67
2022-12-04T21:55:08.006Z,67.77
2022-12-04T21:57:36.579Z,65.87
2022-12-04T22:00:06.965Z,68.83
2022-12-04T22:02:38.077Z,61.20
2022-12-04T22:05:07.408Z,94.13
2022-12-04T22:07:36.165Z,80.17
2022-12-04T22:10:10.490Z,71.20
2022-12-04T22:12:49.651Z,59.43
2022-12-04T22:15:19.355Z,57.73
2022-12-04T22:17:49.299Z,63.47
2022-12-04T22:20:18.534Z,49.23
2022-12-04T22:22:47.117Z,58.87
2022-12-04T22:25:15.998Z,75.53
2022-12-04T22:27:44.535Z,56.13
2022-12-04T22:30:14.326Z,49.87
2022-12-04T22:32:42.955Z,42.00
2022-12-04T22:35:12.932Z,44.23
2022-12-04T22:37:44.524Z,38.77
2022-12-04T22:40:15.211Z,38.83
2022-12-04T22:42:43.897Z,36.70
2022-12-04T22:45:13.436Z,33.57
2022-12-04T22:47:42.312Z,32.27
2022-12-04T22:50:13.431Z,33.43
2022-12-04T22:52:42.067Z,31.77
2022-12-04T22:55:10.895Z,32.40
2022-12-04T22:57:39.425Z,33.90
2022-12-04T23:00:10.482Z,33.67
2022-12-04T23:02:39.023Z,36.80
2022-12-04T23:05:08.189Z,38.50
2022-12-04T23:07:39.451Z,36.77
2022-12-04T23:10:09.685Z,37.67
2022-12-04T23:12:38.794Z,45.50
2022-12-04T23:15:09.119Z,45.10
2022-12-04T23:17:37.709Z,44.97
2022-12-04T23:20:08.134Z,49.10
2022-12-04T23:22:38.045Z,37.37
2022-12-04T23:25:07.976Z,40.30
2022-12-04T23:27:36.505Z,47.83
2022-12-04T23:30:06.507Z,53.33
2022-12-04T23:32:35.298Z,50.93
2022-12-04T23:35:03.849Z,54.87
2022-12-04T23:37:32.378Z,47.47
2022-12-04T23:40:02.242Z,50.73
2022-12-04T23:42:32.448Z,55.17
2022-12-04T23:45:00.995Z,48.77
2022-12-04T23:47:29.543Z,51.37
2022-12-04T23:49:58.336Z,52.70
2022-12-04T23:52:27.099Z,52.80
2022-12-04T23:54:55.657Z,48.87
2022-12-04T23:57:25.483Z,47.57
2022-12-04T23:59:54.795Z,42.83
